KMSO

Missoula International Airport

Missoula, Montana, USA
KMSO 230521Z 2306/2406 33008KT P6SM SCT100 FM231000 08008KT P6SM BKN080 FM231400 11012KT P6SM VCSH OVC080 FM231800 10012G20KT P6SM BKN080
Issued Valid From Valid To
Apr-23 @ 05:21 UTC
(4 hours ago)
Apr-23 @ 06:00 UTC
(4 hours ago)
Apr-24 @ 06:00 UTC
(in 20 hours)
Apr-23 @ 06:00 to Apr-23 @ 10:00
KMSO 230521Z 2306/2406 33008KT P6SM SCT100
Wind Visibility Clouds
330° at 8 knots Greater than 6 miles
  • Scattered at 10,000' AGL
From Apr-23 @ 10:00 to Apr-23 @ 14:00
FM231000 08008KT P6SM BKN080
Wind Visibility Clouds
80° at 8 knots Greater than 6 miles
  • Broken at 8,000' AGL
From Apr-23 @ 14:00 to Apr-23 @ 18:00
FM231400 11012KT P6SM VCSH OVC080
Wind Visibility Clouds
110° at 12 knots Greater than 6 miles
  • Overcast at 8,000' AGL
From Apr-23 @ 18:00 to Apr-24 @ 06:00
FM231800 10012G20KT P6SM BKN080
Wind Visibility Clouds
100° at 12 knots
 Gusting to 20 knots
Greater than 6 miles
  • Broken at 8,000' AGL
KMSO 230521Z 2306/2406 33008KT P6SM SCT100 FM231000 08008KT P6SM BKN080 FM231400 11012KT P6SM VCSH OVC080 FM231800 10012G20KT P6SM BKN080
Issued Apr-23 @ 05:21 UTC
(4 hours ago)
Valid From Apr-23 @ 06:00 UTC
(4 hours ago)
Valid To Apr-24 @ 06:00 UTC
(in 20 hours)
Apr-23 @ 06:00 - Apr-23 @ 10:00
Wind Visibility
330° at 8 knots Greater than 6 miles
Clouds
  • Scattered at 10,000' AGL
From Apr-23 @ 10:00 - Apr-23 @ 14:00
Wind Visibility
80° at 8 knots Greater than 6 miles
Clouds
  • Broken at 8,000' AGL
From Apr-23 @ 14:00 - Apr-23 @ 18:00
Wind Visibility
110° at 12 knots Greater than 6 miles
Clouds
  • Overcast at 8,000' AGL
From Apr-23 @ 18:00 - Apr-24 @ 06:00
Wind Visibility
100° at 12 knots
 Gusting to 20 knots
Greater than 6 miles
Clouds
  • Broken at 8,000' AGL